Terminal Aerodrome Forecast
Issued by NWS

Home | Current Version | Previous Version | Text Only | Print | Product List | Glossary On
Versions: 1 2 3 4 5 6 7 8 9 10 11 12 13 14 15 16 17 18 19 20 21 22
000
FTUS41 KPBZ 171200 RRA
TAFDUJ
TAF
KDUJ 171221Z 1712/1812 12010G18KT P6SM BKN250
     FM171500 15012G22KT P6SM SCT250
     FM180000 12006KT P6SM SKC=

USA.gov is the U.S. government's official web portal to all federal, state and local government web resources and services.